createdAt,value
2022-08-28T00:02:22.285Z,17.70
2022-08-28T00:04:51.078Z,17.10
2022-08-28T00:07:19.754Z,18.17
2022-08-28T00:09:48.315Z,18.92
2022-08-28T00:12:18.196Z,17.75
2022-08-28T00:14:46.774Z,17.10
2022-08-28T00:17:15.287Z,16.98
2022-08-28T00:19:43.771Z,16.73
2022-08-28T00:22:12.346Z,16.85
2022-08-28T00:24:42.994Z,17.08
2022-08-28T00:27:29.168Z,18.13
2022-08-28T00:29:59.421Z,17.10
2022-08-28T00:32:28.533Z,18.38
2022-08-28T00:34:58.035Z,19.27
2022-08-28T00:37:26.632Z,18.90
2022-08-28T00:39:55.262Z,20.40
2022-08-28T00:42:24.952Z,20.13
2022-08-28T00:44:53.459Z,20.85
2022-08-28T00:47:24.641Z,23.10
2022-08-28T00:49:56.815Z,24.65
2022-08-28T00:52:27.075Z,25.88
2022-08-28T00:54:59.025Z,28.33
2022-08-28T00:57:32.423Z,30.23
2022-08-28T01:00:01.752Z,30.48
2022-08-28T01:02:33.962Z,31.17
2022-08-28T01:05:02.996Z,32.13
2022-08-28T01:07:32.231Z,33.90
2022-08-28T01:10:01.170Z,35.53
2022-08-28T01:12:32.013Z,36.58
2022-08-28T01:15:03.549Z,34.55
2022-08-28T01:17:36.412Z,36.13
2022-08-28T01:20:14.248Z,36.90
2022-08-28T01:22:50.144Z,37.95
2022-08-28T01:25:22.355Z,37.65
2022-08-28T01:27:51.781Z,38.03
2022-08-28T01:30:22.083Z,35.95
2022-08-28T01:32:53.846Z,37.72
2022-08-28T01:35:25.835Z,38.13
2022-08-28T01:37:55.931Z,37.35
2022-08-28T01:40:30.232Z,39.00
2022-08-28T01:43:09.279Z,37.13
2022-08-28T01:45:38.133Z,41.03
2022-08-28T01:48:07.625Z,56.30
2022-08-28T01:50:36.987Z,58.28
2022-08-28T01:53:06.791Z,50.60
2022-08-28T01:55:42.817Z,54.28
2022-08-28T01:58:12.862Z,60.03
2022-08-28T02:00:42.126Z,62.67
2022-08-28T02:03:12.930Z,51.22
2022-08-28T02:05:41.981Z,44.75
2022-08-28T02:08:10.968Z,40.50
2022-08-28T02:10:43.731Z,39.97
2022-08-28T02:13:13.274Z,39.00
2022-08-28T02:15:43.534Z,38.92
2022-08-28T02:18:12.268Z,39.58
2022-08-28T02:20:41.928Z,41.08
2022-08-28T02:23:10.746Z,39.30
2022-08-28T02:25:39.606Z,40.05
2022-08-28T02:28:09.955Z,39.78
2022-08-28T02:30:39.027Z,41.00
2022-08-28T02:33:07.603Z,40.65
2022-08-28T02:35:36.243Z,42.53
2022-08-28T02:38:04.914Z,39.78
2022-08-28T02:40:33.891Z,39.42
2022-08-28T02:43:02.413Z,40.10
2022-08-28T02:45:32.904Z,39.58
2022-08-28T02:48:02.134Z,38.75
2022-08-28T02:50:31.198Z,40.70
2022-08-28T02:52:59.853Z,40.38
2022-08-28T02:55:31.354Z,41.15
2022-08-28T02:58:02.499Z,39.67
2022-08-28T03:00:32.449Z,40.83
2022-08-28T03:03:00.952Z,41.35
2022-08-28T03:05:29.458Z,40.80
2022-08-28T03:07:57.903Z,40.97
2022-08-28T03:10:26.335Z,40.67
2022-08-28T03:12:54.790Z,43.10
2022-08-28T03:15:23.543Z,47.15
2022-08-28T03:17:53.380Z,52.50
2022-08-28T03:20:21.983Z,53.00
2022-08-28T03:23:07.849Z,52.17
2022-08-28T03:25:36.276Z,51.63
2022-08-28T03:28:05.014Z,47.83
2022-08-28T03:30:33.581Z,49.15
2022-08-28T03:33:03.523Z,47.00
2022-08-28T03:35:32.026Z,43.90
2022-08-28T03:38:00.542Z,46.05
2022-08-28T03:40:28.999Z,45.83
2022-08-28T03:42:57.643Z,44.85
2022-08-28T03:45:27.933Z,43.47
2022-08-28T03:47:57.033Z,40.47
2022-08-28T03:50:27.676Z,39.75
2022-08-28T03:52:59.390Z,40.80
2022-08-28T03:55:28.986Z,41.55
2022-08-28T03:57:57.486Z,39.92
2022-08-28T04:00:27.176Z,41.63
2022-08-28T04:02:55.935Z,40.47
2022-08-28T04:05:25.064Z,38.35
2022-08-28T04:07:54.883Z,39.90
2022-08-28T04:10:23.427Z,40.42
2022-08-28T04:12:51.863Z,38.97
2022-08-28T04:15:20.413Z,36.60
2022-08-28T04:17:48.875Z,35.90
2022-08-28T04:20:17.500Z,37.03
2022-08-28T04:22:45.966Z,35.00
2022-08-28T04:25:16.012Z,37.35
2022-08-28T04:27:44.479Z,34.95
2022-08-28T04:30:13.672Z,33.85
2022-08-28T04:32:42.327Z,34.40
2022-08-28T04:35:13.126Z,34.13
2022-08-28T04:37:43.748Z,33.00
2022-08-28T04:40:15.992Z,32.28
2022-08-28T04:42:47.554Z,31.10
2022-08-28T04:45:17.089Z,30.95
2022-08-28T04:47:45.528Z,31.02
2022-08-28T04:50:14.028Z,30.95
2022-08-28T04:52:43.616Z,31.67
2022-08-28T04:55:12.088Z,29.70
2022-08-28T04:57:40.539Z,30.15
2022-08-28T05:00:12.450Z,29.65
2022-08-28T05:02:40.934Z,29.73
2022-08-28T05:05:10.151Z,29.88
2022-08-28T05:07:38.605Z,31.48
2022-08-28T05:10:07.797Z,29.65
2022-08-28T05:12:37.236Z,29.90
2022-08-28T05:15:06.715Z,30.98
2022-08-28T05:17:36.610Z,27.67
2022-08-28T05:20:06.438Z,27.40
2022-08-28T05:22:34.921Z,27.25
2022-08-28T05:25:03.398Z,26.58
2022-08-28T05:27:31.976Z,25.13
2022-08-28T05:30:02.090Z,25.83
2022-08-28T05:32:32.288Z,25.42
2022-08-28T05:35:02.155Z,26.20
2022-08-28T05:37:31.383Z,25.73
2022-08-28T05:40:00.286Z,24.05
2022-08-28T05:42:31.018Z,25.75
2022-08-28T05:45:00.453Z,24.40
2022-08-28T05:47:32.639Z,25.10
2022-08-28T05:50:03.269Z,32.95
2022-08-28T05:52:31.945Z,31.17
2022-08-28T05:55:00.690Z,32.17
2022-08-28T05:57:30.456Z,30.55
2022-08-28T05:59:58.943Z,34.83
2022-08-28T06:02:27.870Z,36.70
2022-08-28T06:04:57.858Z,33.20
2022-08-28T06:07:27.762Z,33.55
2022-08-28T06:09:56.340Z,37.10
2022-08-28T06:12:24.806Z,36.58
2022-08-28T06:14:53.291Z,38.42
2022-08-28T06:17:24.051Z,39.92
2022-08-28T06:19:52.560Z,38.22
2022-08-28T06:22:21.103Z,37.65
2022-08-28T06:24:50.917Z,32.65
2022-08-28T06:27:19.501Z,32.38
2022-08-28T06:29:47.975Z,32.53
2022-08-28T06:32:16.613Z,31.42
2022-08-28T06:34:45.147Z,29.85
2022-08-28T06:37:13.590Z,28.55
2022-08-28T06:39:42.053Z,26.67
2022-08-28T06:42:12.035Z,26.13
2022-08-28T06:44:40.576Z,26.55
2022-08-28T06:47:11.254Z,26.90
2022-08-28T06:49:39.758Z,27.10
2022-08-28T06:52:08.338Z,27.95
2022-08-28T06:54:36.833Z,27.10
2022-08-28T06:57:06.907Z,27.55
2022-08-28T06:59:36.896Z,26.80
2022-08-28T07:02:06.514Z,27.13
2022-08-28T07:04:35.095Z,27.25
2022-08-28T07:07:03.571Z,29.83
2022-08-28T07:09:32.100Z,30.17
2022-08-28T07:12:01.023Z,28.48
2022-08-28T07:14:29.457Z,32.35
2022-08-28T07:16:59.277Z,33.95
2022-08-28T07:19:28.571Z,32.30
2022-08-28T07:21:57.017Z,31.85
2022-08-28T07:24:25.487Z,31.23
2022-08-28T07:26:54.467Z,30.65
2022-08-28T07:29:23.437Z,30.05
2022-08-28T07:31:53.766Z,31.08
2022-08-28T07:34:27.223Z,29.25
2022-08-28T07:36:58.259Z,25.70
2022-08-28T07:39:26.760Z,25.67
2022-08-28T07:41:55.249Z,25.27
2022-08-28T07:44:41.133Z,24.05
2022-08-28T07:47:11.707Z,29.30
2022-08-28T07:49:42.019Z,26.88
2022-08-28T07:52:13.783Z,27.80
2022-08-28T07:54:43.841Z,27.65
2022-08-28T07:57:12.427Z,27.55
2022-08-28T07:59:42.982Z,25.27
2022-08-28T08:02:11.850Z,23.90
2022-08-28T08:04:41.818Z,21.98
2022-08-28T08:07:12.974Z,21.38
2022-08-28T08:09:43.637Z,22.75
2022-08-28T08:12:13.718Z,20.65
2022-08-28T08:14:43.602Z,20.80
2022-08-28T08:17:13.179Z,20.75
2022-08-28T08:19:43.034Z,23.75
2022-08-28T08:22:11.529Z,22.27
2022-08-28T08:24:39.983Z,22.42
2022-08-28T08:27:08.474Z,22.88
2022-08-28T08:29:38.763Z,21.02
2022-08-28T08:32:10.487Z,21.10
2022-08-28T08:34:40.803Z,20.02
2022-08-28T08:37:12.828Z,17.10
2022-08-28T08:39:43.180Z,16.92
2022-08-28T08:42:22.798Z,15.43
2022-08-28T08:44:53.541Z,15.45
2022-08-28T08:47:27.688Z,14.73
2022-08-28T08:49:58.955Z,14.63
2022-08-28T08:52:36.417Z,15.30
2022-08-28T08:55:25.253Z,14.70
2022-08-28T08:58:00.128Z,13.90
2022-08-28T09:00:30.007Z,15.55
2022-08-28T09:03:05.895Z,14.10
2022-08-28T09:05:50.204Z,15.48
2022-08-28T09:08:35.326Z,14.25
2022-08-28T09:11:12.555Z,13.20
2022-08-28T09:13:50.582Z,14.13
2022-08-28T09:16:26.467Z,13.07
2022-08-28T09:18:57.247Z,13.38
2022-08-28T09:21:29.389Z,12.90
2022-08-28T09:24:05.499Z,13.05
2022-08-28T09:26:34.783Z,14.07
2022-08-28T09:29:07.228Z,13.32
2022-08-28T09:31:38.484Z,13.02
2022-08-28T09:34:38.095Z,13.20
2022-08-28T09:37:09.753Z,13.18
2022-08-28T09:39:48.766Z,12.95
2022-08-28T09:42:40.342Z,13.45
2022-08-28T09:45:18.720Z,13.13
2022-08-28T09:47:50.065Z,13.52
2022-08-28T09:50:32.113Z,13.15
2022-08-28T09:53:15.366Z,12.77
2022-08-28T09:55:56.574Z,13.02
2022-08-28T09:58:28.328Z,12.80
2022-08-28T10:01:02.345Z,12.35
2022-08-28T10:03:39.597Z,14.00
2022-08-28T10:06:15.259Z,13.35
2022-08-28T10:08:59.416Z,13.02
2022-08-28T10:11:38.069Z,13.07
2022-08-28T10:14:19.427Z,12.85
2022-08-28T10:16:55.481Z,13.35
2022-08-28T10:19:36.782Z,12.63
2022-08-28T10:22:18.285Z,13.13
2022-08-28T10:25:20.618Z,13.73
2022-08-28T10:28:05.485Z,13.43
2022-08-28T10:30:39.441Z,13.65
2022-08-28T10:33:23.951Z,12.82
2022-08-28T10:35:57.315Z,12.60
2022-08-28T10:38:37.211Z,12.80
2022-08-28T10:41:11.235Z,12.55
2022-08-28T10:43:48.019Z,12.98
2022-08-28T10:46:23.143Z,13.30
2022-08-28T10:49:01.669Z,12.73
2022-08-28T10:51:39.439Z,12.75
2022-08-28T10:54:22.955Z,12.90
2022-08-28T10:56:56.027Z,13.13
2022-08-28T10:59:27.576Z,13.30
2022-08-28T11:01:56.655Z,12.85
2022-08-28T11:04:29.312Z,12.52
2022-08-28T11:07:03.685Z,12.43
2022-08-28T11:09:36.598Z,12.80
2022-08-28T11:12:09.780Z,12.65
2022-08-28T11:14:48.391Z,12.30
2022-08-28T11:17:40.250Z,12.70
2022-08-28T11:20:17.077Z,11.90
2022-08-28T11:22:48.124Z,12.15
2022-08-28T11:25:26.340Z,11.88
2022-08-28T11:28:17.507Z,12.40
2022-08-28T11:30:49.253Z,12.45
2022-08-28T11:33:39.976Z,11.57
2022-08-28T11:36:12.150Z,11.43
2022-08-28T11:39:21.541Z,12.20
2022-08-28T11:42:32.227Z,10.63
2022-08-28T11:45:01.389Z,11.75
2022-08-28T11:47:48.777Z,11.48
2022-08-28T11:50:25.314Z,11.80
2022-08-28T11:53:24.041Z,12.00
2022-08-28T11:56:31.140Z,10.68
2022-08-28T11:59:11.034Z,10.95
2022-08-28T12:01:40.591Z,10.90
2022-08-28T12:04:13.419Z,11.20
2022-08-28T12:06:55.536Z,11.10
2022-08-28T12:09:39.753Z,11.13
2022-08-28T12:12:13.959Z,12.38
2022-08-28T12:15:07.750Z,11.93
2022-08-28T12:17:58.912Z,12.18
2022-08-28T12:20:42.366Z,11.82
2022-08-28T12:23:37.287Z,12.77
2022-08-28T12:26:08.821Z,12.27
2022-08-28T12:28:45.791Z,12.18
2022-08-28T12:32:01.777Z,11.52
2022-08-28T12:34:42.493Z,14.98
2022-08-28T12:37:47.559Z,12.95
2022-08-28T12:40:23.330Z,13.30
2022-08-28T12:42:55.858Z,12.77
2022-08-28T12:45:29.006Z,14.10
2022-08-28T12:48:02.057Z,12.38
2022-08-28T12:50:34.162Z,12.05
2022-08-28T12:53:06.897Z,11.80
2022-08-28T12:55:35.858Z,14.32
2022-08-28T12:58:04.552Z,11.27
2022-08-28T13:00:53.529Z,11.05
2022-08-28T13:03:22.657Z,10.13
2022-08-28T13:05:58.751Z,9.25
2022-08-28T13:08:28.939Z,9.90
2022-08-28T13:10:58.690Z,8.10
2022-08-28T13:13:35.392Z,8.45
2022-08-28T13:16:06.024Z,7.85
2022-08-28T13:18:49.801Z,8.18
2022-08-28T13:21:34.957Z,5.97
2022-08-28T13:24:27.442Z,5.90
2022-08-28T13:27:06.222Z,6.75
2022-08-28T13:29:35.441Z,5.80
2022-08-28T13:32:06.930Z,6.70
2022-08-28T13:34:37.309Z,6.53
2022-08-28T13:37:14.656Z,6.70
2022-08-28T13:39:44.895Z,6.63
2022-08-28T13:42:17.016Z,6.70
2022-08-28T13:44:50.696Z,7.18
2022-08-28T13:47:19.225Z,6.18
2022-08-28T13:49:47.964Z,6.18
2022-08-28T13:52:16.867Z,6.53
2022-08-28T13:54:46.898Z,5.30
2022-08-28T13:57:15.839Z,5.07
2022-08-28T13:59:44.350Z,5.70
2022-08-28T14:02:33.116Z,7.18
2022-08-28T14:05:01.854Z,7.85
2022-08-28T14:07:31.731Z,16.92
2022-08-28T14:10:02.029Z,12.43
2022-08-28T14:12:33.365Z,14.35
2022-08-28T14:15:02.679Z,6.43
2022-08-28T14:17:33.021Z,7.85
2022-08-28T14:20:01.896Z,8.88
2022-08-28T14:22:32.473Z,4.93
2022-08-28T14:25:03.467Z,11.20
2022-08-28T14:27:32.085Z,4.35
2022-08-28T14:30:01.633Z,4.32
2022-08-28T14:32:32.594Z,4.35
2022-08-28T14:35:01.074Z,4.05
2022-08-28T14:37:30.064Z,4.35
2022-08-28T14:39:58.643Z,4.35
2022-08-28T14:42:28.635Z,5.72
2022-08-28T14:44:57.340Z,3.67
2022-08-28T14:47:25.817Z,3.47
2022-08-28T14:49:57.169Z,3.97
2022-08-28T14:52:26.547Z,3.95
2022-08-28T14:54:55.692Z,3.83
2022-08-28T14:57:24.752Z,4.50
2022-08-28T14:59:54.574Z,4.40
2022-08-28T15:02:23.040Z,4.82
2022-08-28T15:04:51.453Z,5.03
2022-08-28T15:07:21.351Z,5.60
2022-08-28T15:09:50.238Z,5.72
2022-08-28T15:12:19.924Z,6.13
2022-08-28T15:14:55.171Z,5.57
2022-08-28T15:17:33.937Z,6.25
2022-08-28T15:20:03.341Z,5.03
2022-08-28T15:22:31.863Z,5.60
2022-08-28T15:25:00.309Z,4.90
2022-08-28T15:27:28.774Z,5.00
2022-08-28T15:29:57.257Z,4.03
2022-08-28T15:32:27.612Z,4.38
2022-08-28T15:34:56.252Z,4.63
2022-08-28T15:37:24.744Z,4.82
2022-08-28T15:40:10.720Z,4.72
2022-08-28T15:42:39.231Z,4.43
2022-08-28T15:45:08.111Z,4.03
2022-08-28T15:47:38.977Z,4.53
2022-08-28T15:50:08.551Z,4.13
2022-08-28T15:52:40.128Z,3.45
2022-08-28T15:55:11.320Z,3.30
2022-08-28T15:57:39.882Z,3.53
2022-08-28T16:00:10.506Z,3.60
2022-08-28T16:02:41.485Z,4.13
2022-08-28T16:05:10.414Z,4.07
2022-08-28T16:07:39.184Z,4.60
2022-08-28T16:10:09.725Z,5.43
2022-08-28T16:12:41.256Z,5.20
2022-08-28T16:15:11.086Z,6.18
2022-08-28T16:17:41.275Z,7.43
2022-08-28T16:20:13.683Z,8.77
2022-08-28T16:22:42.848Z,6.60
2022-08-28T16:25:13.030Z,6.30
2022-08-28T16:27:41.546Z,5.45
2022-08-28T16:30:15.702Z,5.38
2022-08-28T16:32:47.192Z,5.22
2022-08-28T16:35:17.039Z,4.88
2022-08-28T16:37:45.960Z,6.72
2022-08-28T16:40:15.095Z,6.57
2022-08-28T16:42:51.851Z,7.00
2022-08-28T16:45:21.141Z,5.97
2022-08-28T16:47:51.484Z,5.25
2022-08-28T16:50:20.550Z,4.70
2022-08-28T16:52:49.272Z,5.90
2022-08-28T16:55:17.797Z,4.15
2022-08-28T16:57:46.251Z,5.75
2022-08-28T17:00:15.290Z,7.40
2022-08-28T17:02:44.781Z,8.05
2022-08-28T17:05:16.130Z,7.03
2022-08-28T17:07:45.054Z,4.97
2022-08-28T17:10:15.842Z,5.82
2022-08-28T17:12:44.857Z,5.97
2022-08-28T17:15:14.417Z,7.38
2022-08-28T17:17:43.320Z,5.93
2022-08-28T17:20:34.666Z,8.05
2022-08-28T17:23:02.795Z,8.57
2022-08-28T17:25:31.256Z,8.13
2022-08-28T17:27:59.830Z,9.70
2022-08-28T17:30:28.471Z,12.27
2022-08-28T17:32:57.416Z,13.00
2022-08-28T17:35:27.603Z,13.52
2022-08-28T17:37:56.089Z,14.38
2022-08-28T17:40:24.994Z,14.55
2022-08-28T17:42:54.302Z,14.00
2022-08-28T17:45:22.835Z,14.00
2022-08-28T17:47:52.808Z,15.93
2022-08-28T17:50:21.929Z,13.00
2022-08-28T17:52:51.831Z,15.02
2022-08-28T17:55:20.993Z,14.32
2022-08-28T17:57:49.587Z,14.65
2022-08-28T18:00:20.866Z,14.93
2022-08-28T18:02:52.333Z,13.15
2022-08-28T18:05:21.157Z,13.95
2022-08-28T18:07:51.095Z,14.13
2022-08-28T18:10:19.985Z,14.63
2022-08-28T18:12:49.034Z,13.23
2022-08-28T18:15:17.860Z,14.30
2022-08-28T18:17:50.539Z,14.90
2022-08-28T18:20:20.181Z,15.38
2022-08-28T18:22:49.197Z,16.27
2022-08-28T18:25:33.505Z,18.02
2022-08-28T18:28:02.595Z,19.35
2022-08-28T18:30:31.109Z,21.92
2022-08-28T18:32:59.730Z,19.38
2022-08-28T18:35:31.702Z,20.33
2022-08-28T18:38:01.717Z,20.80
2022-08-28T18:40:32.867Z,21.83
2022-08-28T18:43:01.926Z,21.13
2022-08-28T18:45:31.828Z,21.45
2022-08-28T18:48:01.441Z,21.50
2022-08-28T18:50:32.001Z,22.80
2022-08-28T18:53:01.341Z,22.40
2022-08-28T18:55:33.414Z,24.33
2022-08-28T18:58:02.976Z,23.90
2022-08-28T19:00:32.074Z,24.70
2022-08-28T19:03:01.053Z,24.23
2022-08-28T19:05:29.678Z,25.77
2022-08-28T19:07:58.881Z,25.75
2022-08-28T19:10:34.102Z,23.95
2022-08-28T19:13:05.596Z,23.13
2022-08-28T19:15:35.841Z,24.42
2022-08-28T19:18:05.723Z,25.13
2022-08-28T19:20:35.331Z,24.17
2022-08-28T19:23:03.877Z,23.70
2022-08-28T19:25:32.474Z,25.00
2022-08-28T19:28:02.242Z,24.52
2022-08-28T19:30:34.127Z,23.95
2022-08-28T19:33:05.247Z,25.63
2022-08-28T19:35:34.874Z,23.20
2022-08-28T19:38:03.841Z,22.52
2022-08-28T19:40:33.799Z,22.88
2022-08-28T19:43:02.574Z,22.15
2022-08-28T19:45:35.722Z,21.75
2022-08-28T19:48:05.002Z,21.35
2022-08-28T19:50:33.521Z,20.95
2022-08-28T19:53:02.092Z,19.30
2022-08-28T19:55:30.801Z,19.67
2022-08-28T19:57:59.441Z,18.55
2022-08-28T20:00:31.180Z,19.75
2022-08-28T20:03:01.295Z,18.70
2022-08-28T20:05:29.873Z,19.50
2022-08-28T20:07:58.587Z,18.50
2022-08-28T20:10:27.752Z,19.33
2022-08-28T20:12:56.532Z,19.05
2022-08-28T20:15:25.227Z,18.95
2022-08-28T20:17:53.753Z,20.67
2022-08-28T20:20:29.348Z,20.55
2022-08-28T20:22:58.378Z,21.08
2022-08-28T20:25:27.878Z,21.40
2022-08-28T20:28:01.438Z,22.40
2022-08-28T20:30:30.628Z,22.95
2022-08-28T20:33:01.067Z,23.83
2022-08-28T20:35:31.075Z,25.40
2022-08-28T20:37:59.721Z,24.08
2022-08-28T20:40:28.542Z,26.92
2022-08-28T20:42:57.185Z,24.85
2022-08-28T20:45:26.226Z,25.40
2022-08-28T20:47:54.918Z,25.52
2022-08-28T20:50:23.362Z,29.30
2022-08-28T20:52:53.122Z,37.38
2022-08-28T20:55:21.717Z,33.33
2022-08-28T20:57:50.281Z,32.67
2022-08-28T21:00:18.783Z,35.28
2022-08-28T21:02:47.358Z,31.98
2022-08-28T21:05:15.896Z,30.15
2022-08-28T21:07:44.488Z,30.77
2022-08-28T21:10:14.531Z,31.13
2022-08-28T21:12:43.127Z,30.50
2022-08-28T21:15:13.920Z,36.35
2022-08-28T21:17:42.988Z,37.47
2022-08-28T21:20:14.272Z,35.55
2022-08-28T21:22:43.320Z,32.08
2022-08-28T21:25:15.515Z,23.63
2022-08-28T21:27:45.133Z,23.88
2022-08-28T21:30:15.862Z,22.63
2022-08-28T21:32:44.393Z,22.15
2022-08-28T21:35:14.335Z,21.45
2022-08-28T21:37:43.303Z,21.17
2022-08-28T21:40:15.757Z,19.80
2022-08-28T21:42:44.492Z,20.60
2022-08-28T21:45:15.736Z,22.42
2022-08-28T21:47:44.471Z,26.45
2022-08-28T21:50:13.581Z,27.02
2022-08-28T21:52:42.084Z,23.08
2022-08-28T21:55:12.784Z,26.52
2022-08-28T21:57:43.422Z,24.02
2022-08-28T22:00:17.470Z,23.67
2022-08-28T22:02:47.146Z,26.65
2022-08-28T22:05:16.102Z,24.95
2022-08-28T22:07:45.165Z,25.90
2022-08-28T22:10:14.150Z,27.02
2022-08-28T22:12:43.983Z,24.98
2022-08-28T22:15:12.770Z,24.85
2022-08-28T22:17:41.246Z,24.45
2022-08-28T22:20:10.936Z,25.38
2022-08-28T22:22:56.708Z,25.08
2022-08-28T22:25:25.460Z,24.92
2022-08-28T22:27:55.389Z,24.33
2022-08-28T22:30:24.553Z,18.60
2022-08-28T22:32:53.988Z,19.00
2022-08-28T22:35:22.948Z,17.05
2022-08-28T22:37:51.524Z,14.25
2022-08-28T22:40:20.384Z,13.93
2022-08-28T22:42:50.549Z,12.30
2022-08-28T22:45:21.409Z,12.95
2022-08-28T22:47:51.084Z,11.95
2022-08-28T22:50:20.109Z,11.07
2022-08-28T22:52:49.656Z,10.63
2022-08-28T22:55:21.818Z,11.60
2022-08-28T22:57:50.443Z,9.82
2022-08-28T23:00:25.919Z,9.82
2022-08-28T23:02:55.950Z,9.88
2022-08-28T23:05:25.554Z,9.93
2022-08-28T23:07:54.434Z,10.10
2022-08-28T23:10:42.177Z,9.63
2022-08-28T23:13:14.260Z,9.23
2022-08-28T23:15:44.910Z,10.38
2022-08-28T23:18:13.525Z,10.50
2022-08-28T23:20:42.178Z,9.52
2022-08-28T23:23:11.276Z,13.13
2022-08-28T23:25:39.748Z,17.95
2022-08-28T23:28:08.392Z,17.67
2022-08-28T23:30:38.971Z,18.23
2022-08-28T23:33:08.938Z,16.20
2022-08-28T23:35:38.103Z,13.93
2022-08-28T23:38:06.936Z,14.90
2022-08-28T23:40:37.439Z,13.52
2022-08-28T23:43:06.086Z,14.13
2022-08-28T23:45:35.375Z,12.77
2022-08-28T23:48:04.338Z,14.52
2022-08-28T23:50:35.167Z,15.30
2022-08-28T23:53:05.807Z,15.57
2022-08-28T23:55:34.316Z,11.32
2022-08-28T23:58:05.098Z,11.35
